sensor_id;sensor_type;location;lat;lon;timestamp;temperature;humidity
3690;DHT22;1861;50.240;8.596;2024-02-21T00:00:27;10.10;99.90
3690;DHT22;1861;50.240;8.596;2024-02-21T00:02:56;10.10;99.90
3690;DHT22;1861;50.240;8.596;2024-02-21T00:05:28;10.20;99.90
3690;DHT22;1861;50.240;8.596;2024-02-21T00:07:58;10.20;99.90
3690;DHT22;1861;50.240;8.596;2024-02-21T00:10:27;10.10;99.90
3690;DHT22;1861;50.240;8.596;2024-02-21T00:12:55;10.10;99.90
3690;DHT22;1861;50.240;8.596;2024-02-21T00:15:24;10.10;99.90
3690;DHT22;1861;50.240;8.596;2024-02-21T00:17:52;10.20;99.90
3690;DHT22;1861;50.240;8.596;2024-02-21T00:20:20;10.10;99.90
3690;DHT22;1861;50.240;8.596;2024-02-21T00:22:50;10.10;99.90
3690;DHT22;1861;50.240;8.596;2024-02-21T00:25:18;10.00;99.90
3690;DHT22;1861;50.240;8.596;2024-02-21T00:27:46;10.10;99.90
3690;DHT22;1861;50.240;8.596;2024-02-21T00:30:14;10.00;99.90
3690;DHT22;1861;50.240;8.596;2024-02-21T00:32:42;10.10;99.90
3690;DHT22;1861;50.240;8.596;2024-02-21T00:35:10;10.00;99.90
3690;DHT22;1861;50.240;8.596;2024-02-21T00:37:39;10.00;99.90
3690;DHT22;1861;50.240;8.596;2024-02-21T00:40:09;9.90;99.90
3690;DHT22;1861;50.240;8.596;2024-02-21T00:42:37;9.90;99.90
3690;DHT22;1861;50.240;8.596;2024-02-21T00:45:07;9.90;99.90
3690;DHT22;1861;50.240;8.596;2024-02-21T00:47:36;9.90;99.90
3690;DHT22;1861;50.240;8.596;2024-02-21T00:50:05;10.00;99.90
3690;DHT22;1861;50.240;8.596;2024-02-21T00:52:36;9.90;99.90
3690;DHT22;1861;50.240;8.596;2024-02-21T00:55:05;9.90;99.90
3690;DHT22;1861;50.240;8.596;2024-02-21T00:57:35;10.00;99.90
3690;DHT22;1861;50.240;8.596;2024-02-21T01:00:04;10.00;99.90
3690;DHT22;1861;50.240;8.596;2024-02-21T01:02:32;10.00;99.90
3690;DHT22;1861;50.240;8.596;2024-02-21T01:05:01;10.00;99.90
3690;DHT22;1861;50.240;8.596;2024-02-21T01:07:29;10.00;99.90
3690;DHT22;1861;50.240;8.596;2024-02-21T01:09:58;10.00;99.90
3690;DHT22;1861;50.240;8.596;2024-02-21T01:12:26;10.00;99.90
3690;DHT22;1861;50.240;8.596;2024-02-21T01:14:55;10.00;99.90
3690;DHT22;1861;50.240;8.596;2024-02-21T01:17:23;10.00;99.90
3690;DHT22;1861;50.240;8.596;2024-02-21T01:19:52;9.90;99.90
3690;DHT22;1861;50.240;8.596;2024-02-21T01:22:20;9.90;99.90
3690;DHT22;1861;50.240;8.596;2024-02-21T01:24:48;10.00;99.90
3690;DHT22;1861;50.240;8.596;2024-02-21T01:27:16;10.00;99.90
3690;DHT22;1861;50.240;8.596;2024-02-21T01:29:45;10.00;99.90
3690;DHT22;1861;50.240;8.596;2024-02-21T01:32:14;10.00;99.90
3690;DHT22;1861;50.240;8.596;2024-02-21T01:34:43;10.00;99.90
3690;DHT22;1861;50.240;8.596;2024-02-21T01:37:11;10.00;99.90
3690;DHT22;1861;50.240;8.596;2024-02-21T01:39:39;10.00;99.90
3690;DHT22;1861;50.240;8.596;2024-02-21T01:42:07;10.00;99.90
3690;DHT22;1861;50.240;8.596;2024-02-21T01:44:36;10.10;99.90
3690;DHT22;1861;50.240;8.596;2024-02-21T01:47:05;10.00;99.90
3690;DHT22;1861;50.240;8.596;2024-02-21T01:49:35;10.10;99.90
3690;DHT22;1861;50.240;8.596;2024-02-21T01:52:03;10.00;99.90
3690;DHT22;1861;50.240;8.596;2024-02-21T01:54:32;10.00;99.90
3690;DHT22;1861;50.240;8.596;2024-02-21T01:57:00;10.00;99.90
3690;DHT22;1861;50.240;8.596;2024-02-21T01:59:28;10.10;99.90
3690;DHT22;1861;50.240;8.596;2024-02-21T02:01:57;10.00;99.90
3690;DHT22;1861;50.240;8.596;2024-02-21T02:04:26;10.10;99.90
3690;DHT22;1861;50.240;8.596;2024-02-21T02:06:56;10.00;99.90
3690;DHT22;1861;50.240;8.596;2024-02-21T02:09:25;10.00;99.90
3690;DHT22;1861;50.240;8.596;2024-02-21T02:11:54;10.00;99.90
3690;DHT22;1861;50.240;8.596;2024-02-21T02:14:22;9.90;99.90
3690;DHT22;1861;50.240;8.596;2024-02-21T02:16:50;10.00;99.90
3690;DHT22;1861;50.240;8.596;2024-02-21T02:19:19;9.90;99.90
3690;DHT22;1861;50.240;8.596;2024-02-21T02:21:50;10.00;99.90
3690;DHT22;1861;50.240;8.596;2024-02-21T02:24:22;10.00;99.90
3690;DHT22;1861;50.240;8.596;2024-02-21T02:26:52;9.90;99.90
3690;DHT22;1861;50.240;8.596;2024-02-21T02:29:21;9.90;99.90
3690;DHT22;1861;50.240;8.596;2024-02-21T02:31:49;9.90;99.90
3690;DHT22;1861;50.240;8.596;2024-02-21T02:34:17;9.90;99.90
3690;DHT22;1861;50.240;8.596;2024-02-21T02:36:46;9.80;99.90
3690;DHT22;1861;50.240;8.596;2024-02-21T02:39:16;9.90;99.90
3690;DHT22;1861;50.240;8.596;2024-02-21T02:41:45;9.90;99.90
3690;DHT22;1861;50.240;8.596;2024-02-21T02:44:13;10.00;99.90
3690;DHT22;1861;50.240;8.596;2024-02-21T02:46:42;10.00;99.90
3690;DHT22;1861;50.240;8.596;2024-02-21T02:49:10;10.00;99.90
3690;DHT22;1861;50.240;8.596;2024-02-21T02:51:41;10.00;99.90
3690;DHT22;1861;50.240;8.596;2024-02-21T02:54:09;10.00;99.90
3690;DHT22;1861;50.240;8.596;2024-02-21T02:56:37;10.00;99.90
3690;DHT22;1861;50.240;8.596;2024-02-21T02:59:07;9.90;99.90
3690;DHT22;1861;50.240;8.596;2024-02-21T03:01:35;9.90;99.90
3690;DHT22;1861;50.240;8.596;2024-02-21T03:04:03;9.90;99.90
3690;DHT22;1861;50.240;8.596;2024-02-21T03:06:31;9.90;99.90
3690;DHT22;1861;50.240;8.596;2024-02-21T03:09:00;9.90;99.90
3690;DHT22;1861;50.240;8.596;2024-02-21T03:11:28;10.00;99.90
3690;DHT22;1861;50.240;8.596;2024-02-21T03:13:57;10.10;99.90
3690;DHT22;1861;50.240;8.596;2024-02-21T03:16:26;10.10;99.90
3690;DHT22;1861;50.240;8.596;2024-02-21T03:18:55;10.00;99.90
3690;DHT22;1861;50.240;8.596;2024-02-21T03:21:24;10.00;99.90
3690;DHT22;1861;50.240;8.596;2024-02-21T03:23:52;10.00;99.90
3690;DHT22;1861;50.240;8.596;2024-02-21T03:26:20;10.00;99.90
3690;DHT22;1861;50.240;8.596;2024-02-21T03:28:48;10.00;99.90
3690;DHT22;1861;50.240;8.596;2024-02-21T03:31:16;10.00;99.90
3690;DHT22;1861;50.240;8.596;2024-02-21T03:33:46;10.00;99.90
3690;DHT22;1861;50.240;8.596;2024-02-21T03:36:14;10.10;99.90
3690;DHT22;1861;50.240;8.596;2024-02-21T03:38:42;10.10;99.90
3690;DHT22;1861;50.240;8.596;2024-02-21T03:41:11;10.00;99.90
3690;DHT22;1861;50.240;8.596;2024-02-21T03:43:40;9.90;99.90
3690;DHT22;1861;50.240;8.596;2024-02-21T03:46:08;10.00;99.90
3690;DHT22;1861;50.240;8.596;2024-02-21T03:48:36;9.90;99.90
3690;DHT22;1861;50.240;8.596;2024-02-21T03:51:06;9.90;99.90
3690;DHT22;1861;50.240;8.596;2024-02-21T03:53:34;9.90;99.90
3690;DHT22;1861;50.240;8.596;2024-02-21T03:56:02;9.90;99.90
3690;DHT22;1861;50.240;8.596;2024-02-21T03:58:31;9.90;99.90
3690;DHT22;1861;50.240;8.596;2024-02-21T04:01:00;9.90;99.90
3690;DHT22;1861;50.240;8.596;2024-02-21T04:03:29;9.90;99.90
3690;DHT22;1861;50.240;8.596;2024-02-21T04:05:57;9.90;99.90
3690;DHT22;1861;50.240;8.596;2024-02-21T04:08:26;9.90;99.90
3690;DHT22;1861;50.240;8.596;2024-02-21T04:10:54;10.00;99.90
3690;DHT22;1861;50.240;8.596;2024-02-21T04:13:23;9.90;99.90
3690;DHT22;1861;50.240;8.596;2024-02-21T04:15:51;9.90;99.90
3690;DHT22;1861;50.240;8.596;2024-02-21T04:18:19;10.00;99.90
3690;DHT22;1861;50.240;8.596;2024-02-21T04:20:47;10.00;99.90
3690;DHT22;1861;50.240;8.596;2024-02-21T04:23:15;10.00;99.90
3690;DHT22;1861;50.240;8.596;2024-02-21T04:25:45;9.90;99.90
3690;DHT22;1861;50.240;8.596;2024-02-21T04:28:13;10.00;99.90
3690;DHT22;1861;50.240;8.596;2024-02-21T04:30:41;10.00;99.90
3690;DHT22;1861;50.240;8.596;2024-02-21T04:33:09;10.00;99.90
3690;DHT22;1861;50.240;8.596;2024-02-21T04:35:37;10.00;99.90
3690;DHT22;1861;50.240;8.596;2024-02-21T04:38:06;10.00;99.90
3690;DHT22;1861;50.240;8.596;2024-02-21T04:40:34;10.00;99.90
3690;DHT22;1861;50.240;8.596;2024-02-21T04:43:04;10.00;99.90
3690;DHT22;1861;50.240;8.596;2024-02-21T04:45:32;10.00;99.90
3690;DHT22;1861;50.240;8.596;2024-02-21T04:48:00;10.00;99.90
3690;DHT22;1861;50.240;8.596;2024-02-21T04:50:29;10.00;99.90
3690;DHT22;1861;50.240;8.596;2024-02-21T04:52:57;10.00;99.90
3690;DHT22;1861;50.240;8.596;2024-02-21T04:55:25;10.00;99.90
3690;DHT22;1861;50.240;8.596;2024-02-21T04:57:53;10.00;99.90
3690;DHT22;1861;50.240;8.596;2024-02-21T05:00:23;10.00;99.90
3690;DHT22;1861;50.240;8.596;2024-02-21T05:02:51;10.00;99.90
3690;DHT22;1861;50.240;8.596;2024-02-21T05:05:19;10.00;99.90
3690;DHT22;1861;50.240;8.596;2024-02-21T05:07:48;9.90;99.90
3690;DHT22;1861;50.240;8.596;2024-02-21T05:10:16;9.90;99.90
3690;DHT22;1861;50.240;8.596;2024-02-21T05:12:44;9.90;99.90
3690;DHT22;1861;50.240;8.596;2024-02-21T05:15:12;9.90;99.90
3690;DHT22;1861;50.240;8.596;2024-02-21T05:17:42;9.90;99.90
3690;DHT22;1861;50.240;8.596;2024-02-21T05:20:11;10.00;99.90
3690;DHT22;1861;50.240;8.596;2024-02-21T05:22:39;9.90;99.90
3690;DHT22;1861;50.240;8.596;2024-02-21T05:25:08;9.90;99.90
3690;DHT22;1861;50.240;8.596;2024-02-21T05:27:36;9.90;99.90
3690;DHT22;1861;50.240;8.596;2024-02-21T05:30:06;9.90;99.90
3690;DHT22;1861;50.240;8.596;2024-02-21T05:32:34;9.90;99.90
3690;DHT22;1861;50.240;8.596;2024-02-21T05:35:04;9.90;99.90
3690;DHT22;1861;50.240;8.596;2024-02-21T05:37:32;9.90;99.90
3690;DHT22;1861;50.240;8.596;2024-02-21T05:40:01;10.00;99.90
3690;DHT22;1861;50.240;8.596;2024-02-21T05:42:29;10.00;99.90
3690;DHT22;1861;50.240;8.596;2024-02-21T05:44:57;9.90;99.90
3690;DHT22;1861;50.240;8.596;2024-02-21T05:47:25;9.90;99.90
3690;DHT22;1861;50.240;8.596;2024-02-21T05:49:53;9.90;99.90
3690;DHT22;1861;50.240;8.596;2024-02-21T05:52:23;9.90;99.90
3690;DHT22;1861;50.240;8.596;2024-02-21T05:54:51;9.90;99.90
3690;DHT22;1861;50.240;8.596;2024-02-21T05:57:19;9.80;99.90
3690;DHT22;1861;50.240;8.596;2024-02-21T05:59:47;9.90;99.90
3690;DHT22;1861;50.240;8.596;2024-02-21T06:02:16;9.80;99.90
3690;DHT22;1861;50.240;8.596;2024-02-21T06:04:44;9.90;99.90
3690;DHT22;1861;50.240;8.596;2024-02-21T06:07:13;9.90;99.90
3690;DHT22;1861;50.240;8.596;2024-02-21T06:09:43;9.80;99.90
3690;DHT22;1861;50.240;8.596;2024-02-21T06:12:11;9.70;99.90
3690;DHT22;1861;50.240;8.596;2024-02-21T06:14:39;9.80;99.90
3690;DHT22;1861;50.240;8.596;2024-02-21T06:17:07;9.80;99.90
3690;DHT22;1861;50.240;8.596;2024-02-21T06:19:36;9.80;99.90
3690;DHT22;1861;50.240;8.596;2024-02-21T06:22:04;9.70;99.90
3690;DHT22;1861;50.240;8.596;2024-02-21T06:24:35;9.60;99.90
3690;DHT22;1861;50.240;8.596;2024-02-21T06:27:05;9.70;99.90
3690;DHT22;1861;50.240;8.596;2024-02-21T06:29:37;9.70;99.90
3690;DHT22;1861;50.240;8.596;2024-02-21T06:32:05;9.70;99.90
3690;DHT22;1861;50.240;8.596;2024-02-21T06:34:33;9.70;99.90
3690;DHT22;1861;50.240;8.596;2024-02-21T06:37:02;9.70;99.90
3690;DHT22;1861;50.240;8.596;2024-02-21T06:39:30;9.70;99.90
3690;DHT22;1861;50.240;8.596;2024-02-21T06:41:58;9.60;99.90
3690;DHT22;1861;50.240;8.596;2024-02-21T06:44:31;9.70;99.90
3690;DHT22;1861;50.240;8.596;2024-02-21T06:47:03;9.70;99.90
3690;DHT22;1861;50.240;8.596;2024-02-21T06:49:31;9.60;99.90
3690;DHT22;1861;50.240;8.596;2024-02-21T06:52:00;9.60;99.90
3690;DHT22;1861;50.240;8.596;2024-02-21T06:54:28;9.60;99.90
3690;DHT22;1861;50.240;8.596;2024-02-21T06:56:56;9.60;99.90
3690;DHT22;1861;50.240;8.596;2024-02-21T06:59:24;9.60;99.90
3690;DHT22;1861;50.240;8.596;2024-02-21T07:01:54;9.60;99.90
3690;DHT22;1861;50.240;8.596;2024-02-21T07:04:23;9.60;99.90
3690;DHT22;1861;50.240;8.596;2024-02-21T07:06:51;9.60;99.90
3690;DHT22;1861;50.240;8.596;2024-02-21T07:09:20;9.60;99.90
3690;DHT22;1861;50.240;8.596;2024-02-21T07:11:48;9.70;99.90
3690;DHT22;1861;50.240;8.596;2024-02-21T07:14:18;9.70;99.90
3690;DHT22;1861;50.240;8.596;2024-02-21T07:16:46;9.70;99.90
3690;DHT22;1861;50.240;8.596;2024-02-21T07:19:16;9.70;99.90
3690;DHT22;1861;50.240;8.596;2024-02-21T07:21:44;9.80;99.90
3690;DHT22;1861;50.240;8.596;2024-02-21T07:24:12;9.80;99.90
3690;DHT22;1861;50.240;8.596;2024-02-21T07:26:41;9.80;99.90
3690;DHT22;1861;50.240;8.596;2024-02-21T07:29:10;9.90;99.90
3690;DHT22;1861;50.240;8.596;2024-02-21T07:31:40;9.80;99.90
3690;DHT22;1861;50.240;8.596;2024-02-21T07:34:09;9.80;99.90
3690;DHT22;1861;50.240;8.596;2024-02-21T07:36:38;9.90;99.90
3690;DHT22;1861;50.240;8.596;2024-02-21T07:39:09;9.90;99.90
3690;DHT22;1861;50.240;8.596;2024-02-21T07:41:37;9.90;99.90
3690;DHT22;1861;50.240;8.596;2024-02-21T07:44:07;10.00;99.90
3690;DHT22;1861;50.240;8.596;2024-02-21T07:46:35;10.10;99.90
3690;DHT22;1861;50.240;8.596;2024-02-21T07:49:03;10.00;99.90
3690;DHT22;1861;50.240;8.596;2024-02-21T07:51:31;10.10;99.90
3690;DHT22;1861;50.240;8.596;2024-02-21T07:54:01;10.00;99.90
3690;DHT22;1861;50.240;8.596;2024-02-21T07:56:29;10.00;99.90
3690;DHT22;1861;50.240;8.596;2024-02-21T07:58:58;10.00;99.90
3690;DHT22;1861;50.240;8.596;2024-02-21T08:01:26;10.10;99.90
3690;DHT22;1861;50.240;8.596;2024-02-21T08:03:55;10.10;99.90
3690;DHT22;1861;50.240;8.596;2024-02-21T08:06:23;10.00;99.90
3690;DHT22;1861;50.240;8.596;2024-02-21T08:08:51;10.00;99.90
3690;DHT22;1861;50.240;8.596;2024-02-21T08:11:21;10.00;99.90
3690;DHT22;1861;50.240;8.596;2024-02-21T08:13:49;10.10;99.90
3690;DHT22;1861;50.240;8.596;2024-02-21T08:16:17;10.10;99.90
3690;DHT22;1861;50.240;8.596;2024-02-21T08:18:45;10.10;99.90
3690;DHT22;1861;50.240;8.596;2024-02-21T08:21:14;10.10;99.90
3690;DHT22;1861;50.240;8.596;2024-02-21T08:23:42;10.10;99.90
3690;DHT22;1861;50.240;8.596;2024-02-21T08:26:10;10.10;99.90
3690;DHT22;1861;50.240;8.596;2024-02-21T08:28:40;10.10;99.90
3690;DHT22;1861;50.240;8.596;2024-02-21T08:31:08;10.10;99.90
3690;DHT22;1861;50.240;8.596;2024-02-21T08:33:36;10.10;99.90
3690;DHT22;1861;50.240;8.596;2024-02-21T08:36:05;10.10;99.90
3690;DHT22;1861;50.240;8.596;2024-02-21T08:38:34;10.10;99.90
3690;DHT22;1861;50.240;8.596;2024-02-21T08:41:04;10.10;99.90
3690;DHT22;1861;50.240;8.596;2024-02-21T08:43:33;10.10;99.90
3690;DHT22;1861;50.240;8.596;2024-02-21T08:46:04;10.10;99.90
3690;DHT22;1861;50.240;8.596;2024-02-21T08:48:33;10.10;99.90
3690;DHT22;1861;50.240;8.596;2024-02-21T08:51:01;10.10;99.90
3690;DHT22;1861;50.240;8.596;2024-02-21T08:53:29;10.10;99.90
3690;DHT22;1861;50.240;8.596;2024-02-21T08:55:58;10.10;99.90
3690;DHT22;1861;50.240;8.596;2024-02-21T08:58:27;10.10;99.90
3690;DHT22;1861;50.240;8.596;2024-02-21T09:00:55;10.20;99.90
3690;DHT22;1861;50.240;8.596;2024-02-21T09:03:25;10.20;99.90
3690;DHT22;1861;50.240;8.596;2024-02-21T09:05:53;10.20;99.90
3690;DHT22;1861;50.240;8.596;2024-02-21T09:08:21;10.20;99.90
3690;DHT22;1861;50.240;8.596;2024-02-21T09:10:51;10.20;99.90
3690;DHT22;1861;50.240;8.596;2024-02-21T09:13:19;10.20;99.90
3690;DHT22;1861;50.240;8.596;2024-02-21T09:15:48;10.30;99.90
3690;DHT22;1861;50.240;8.596;2024-02-21T09:18:16;10.30;99.90
3690;DHT22;1861;50.240;8.596;2024-02-21T09:20:46;10.30;99.90
3690;DHT22;1861;50.240;8.596;2024-02-21T09:23:14;10.30;99.90
3690;DHT22;1861;50.240;8.596;2024-02-21T09:25:43;10.40;99.90
3690;DHT22;1861;50.240;8.596;2024-02-21T09:28:11;10.40;99.90
3690;DHT22;1861;50.240;8.596;2024-02-21T09:30:39;10.40;99.90
3690;DHT22;1861;50.240;8.596;2024-02-21T09:33:08;10.50;99.90
3690;DHT22;1861;50.240;8.596;2024-02-21T09:35:39;10.50;99.90
3690;DHT22;1861;50.240;8.596;2024-02-21T09:38:08;10.50;99.90
3690;DHT22;1861;50.240;8.596;2024-02-21T09:40:37;10.50;99.90
3690;DHT22;1861;50.240;8.596;2024-02-21T09:43:07;10.50;99.90
3690;DHT22;1861;50.240;8.596;2024-02-21T09:45:38;10.50;99.90
3690;DHT22;1861;50.240;8.596;2024-02-21T09:48:24;10.60;99.90
3690;DHT22;1861;50.240;8.596;2024-02-21T09:50:55;10.60;99.90
3690;DHT22;1861;50.240;8.596;2024-02-21T09:53:26;10.60;99.90
3690;DHT22;1861;50.240;8.596;2024-02-21T09:55:55;10.60;99.90
3690;DHT22;1861;50.240;8.596;2024-02-21T09:58:25;10.60;99.90
3690;DHT22;1861;50.240;8.596;2024-02-21T10:00:54;10.50;99.90
3690;DHT22;1861;50.240;8.596;2024-02-21T10:03:24;10.60;99.90
3690;DHT22;1861;50.240;8.596;2024-02-21T10:05:52;10.60;99.90
3690;DHT22;1861;50.240;8.596;2024-02-21T10:08:20;10.70;99.90
3690;DHT22;1861;50.240;8.596;2024-02-21T10:10:50;10.70;99.90
3690;DHT22;1861;50.240;8.596;2024-02-21T10:13:25;10.70;99.90
3690;DHT22;1861;50.240;8.596;2024-02-21T10:16:04;10.70;99.90
3690;DHT22;1861;50.240;8.596;2024-02-21T10:18:33;10.70;99.90
3690;DHT22;1861;50.240;8.596;2024-02-21T10:21:02;10.80;99.90
3690;DHT22;1861;50.240;8.596;2024-02-21T10:23:44;10.80;99.90
3690;DHT22;1861;50.240;8.596;2024-02-21T10:26:14;10.70;99.90
3690;DHT22;1861;50.240;8.596;2024-02-21T10:28:43;10.70;99.90
3690;DHT22;1861;50.240;8.596;2024-02-21T10:31:21;10.70;99.90
3690;DHT22;1861;50.240;8.596;2024-02-21T10:33:54;10.80;99.90
3690;DHT22;1861;50.240;8.596;2024-02-21T10:36:23;10.70;99.90
3690;DHT22;1861;50.240;8.596;2024-02-21T10:38:52;10.60;99.90
3690;DHT22;1861;50.240;8.596;2024-02-21T10:41:23;10.70;99.90
3690;DHT22;1861;50.240;8.596;2024-02-21T10:43:53;10.70;99.90
3690;DHT22;1861;50.240;8.596;2024-02-21T10:46:23;10.80;99.90
3690;DHT22;1861;50.240;8.596;2024-02-21T10:49:01;10.80;99.90
3690;DHT22;1861;50.240;8.596;2024-02-21T10:51:33;10.80;99.90
3690;DHT22;1861;50.240;8.596;2024-02-21T10:54:13;10.90;99.90
3690;DHT22;1861;50.240;8.596;2024-02-21T10:56:45;10.90;99.90
3690;DHT22;1861;50.240;8.596;2024-02-21T10:59:13;10.90;99.90
3690;DHT22;1861;50.240;8.596;2024-02-21T11:01:42;10.90;99.90
3690;DHT22;1861;50.240;8.596;2024-02-21T11:04:11;11.00;99.90
3690;DHT22;1861;50.240;8.596;2024-02-21T11:06:41;11.00;99.90
3690;DHT22;1861;50.240;8.596;2024-02-21T11:09:10;11.00;99.90
3690;DHT22;1861;50.240;8.596;2024-02-21T11:11:40;11.10;99.90
3690;DHT22;1861;50.240;8.596;2024-02-21T11:14:17;11.00;99.90
3690;DHT22;1861;50.240;8.596;2024-02-21T11:16:46;11.00;99.90
3690;DHT22;1861;50.240;8.596;2024-02-21T11:19:20;10.80;99.90
3690;DHT22;1861;50.240;8.596;2024-02-21T11:21:49;10.90;99.90
3690;DHT22;1861;50.240;8.596;2024-02-21T11:24:26;10.90;99.90
3690;DHT22;1861;50.240;8.596;2024-02-21T11:26:55;11.00;99.90
3690;DHT22;1861;50.240;8.596;2024-02-21T11:29:25;11.10;99.90
3690;DHT22;1861;50.240;8.596;2024-02-21T11:31:54;11.10;99.90
3690;DHT22;1861;50.240;8.596;2024-02-21T11:34:22;11.20;99.90
3690;DHT22;1861;50.240;8.596;2024-02-21T11:36:52;11.20;99.90
3690;DHT22;1861;50.240;8.596;2024-02-21T11:39:21;11.10;99.90
3690;DHT22;1861;50.240;8.596;2024-02-21T11:42:02;11.10;99.90
3690;DHT22;1861;50.240;8.596;2024-02-21T11:44:33;11.10;99.90
3690;DHT22;1861;50.240;8.596;2024-02-21T11:47:01;11.00;99.90
3690;DHT22;1861;50.240;8.596;2024-02-21T11:49:30;11.10;99.90
3690;DHT22;1861;50.240;8.596;2024-02-21T11:51:59;11.10;99.90
3690;DHT22;1861;50.240;8.596;2024-02-21T11:54:31;11.10;99.90
3690;DHT22;1861;50.240;8.596;2024-02-21T11:56:59;11.10;99.90
3690;DHT22;1861;50.240;8.596;2024-02-21T11:59:30;11.10;99.90
3690;DHT22;1861;50.240;8.596;2024-02-21T12:02:00;11.20;99.90
3690;DHT22;1861;50.240;8.596;2024-02-21T12:04:30;11.20;99.90
3690;DHT22;1861;50.240;8.596;2024-02-21T12:06:59;11.10;99.90
3690;DHT22;1861;50.240;8.596;2024-02-21T12:09:27;11.20;99.90
3690;DHT22;1861;50.240;8.596;2024-02-21T12:11:59;11.30;99.90
3690;DHT22;1861;50.240;8.596;2024-02-21T12:14:28;11.20;99.90
3690;DHT22;1861;50.240;8.596;2024-02-21T12:16:58;11.20;99.90
3690;DHT22;1861;50.240;8.596;2024-02-21T12:19:29;11.10;99.90
3690;DHT22;1861;50.240;8.596;2024-02-21T12:21:59;11.10;99.90
3690;DHT22;1861;50.240;8.596;2024-02-21T12:24:28;11.20;99.90
3690;DHT22;1861;50.240;8.596;2024-02-21T12:26:57;11.20;99.90
3690;DHT22;1861;50.240;8.596;2024-02-21T12:29:27;11.20;99.90
3690;DHT22;1861;50.240;8.596;2024-02-21T12:31:56;11.20;99.90
3690;DHT22;1861;50.240;8.596;2024-02-21T12:34:24;11.20;99.90
3690;DHT22;1861;50.240;8.596;2024-02-21T12:37:12;11.30;99.90
3690;DHT22;1861;50.240;8.596;2024-02-21T12:39:40;11.30;99.90
3690;DHT22;1861;50.240;8.596;2024-02-21T12:42:08;11.30;99.90
3690;DHT22;1861;50.240;8.596;2024-02-21T12:44:38;11.30;99.90
3690;DHT22;1861;50.240;8.596;2024-02-21T12:47:06;11.30;99.90
3690;DHT22;1861;50.240;8.596;2024-02-21T12:49:35;11.30;99.90
3690;DHT22;1861;50.240;8.596;2024-02-21T12:52:05;11.30;99.90
3690;DHT22;1861;50.240;8.596;2024-02-21T12:54:35;11.30;99.90
3690;DHT22;1861;50.240;8.596;2024-02-21T12:57:03;11.30;99.90
3690;DHT22;1861;50.240;8.596;2024-02-21T12:59:31;11.30;99.90
3690;DHT22;1861;50.240;8.596;2024-02-21T13:02:00;11.30;99.90
3690;DHT22;1861;50.240;8.596;2024-02-21T13:04:28;11.30;99.90
3690;DHT22;1861;50.240;8.596;2024-02-21T13:06:56;11.20;99.90
3690;DHT22;1861;50.240;8.596;2024-02-21T13:09:24;11.20;99.90
3690;DHT22;1861;50.240;8.596;2024-02-21T13:11:54;11.20;99.90
3690;DHT22;1861;50.240;8.596;2024-02-21T13:14:23;11.20;99.90
3690;DHT22;1861;50.240;8.596;2024-02-21T13:16:51;11.30;99.90
3690;DHT22;1861;50.240;8.596;2024-02-21T13:19:19;11.30;99.90
3690;DHT22;1861;50.240;8.596;2024-02-21T13:21:48;11.20;99.90
3690;DHT22;1861;50.240;8.596;2024-02-21T13:24:16;11.20;99.90
3690;DHT22;1861;50.240;8.596;2024-02-21T13:26:44;11.20;99.90
3690;DHT22;1861;50.240;8.596;2024-02-21T13:29:13;11.20;99.90
3690;DHT22;1861;50.240;8.596;2024-02-21T13:31:42;11.20;99.90
3690;DHT22;1861;50.240;8.596;2024-02-21T13:34:10;11.20;99.90
3690;DHT22;1861;50.240;8.596;2024-02-21T13:36:38;11.20;99.90
3690;DHT22;1861;50.240;8.596;2024-02-21T13:39:06;11.20;99.90
3690;DHT22;1861;50.240;8.596;2024-02-21T13:41:39;11.20;99.90
3690;DHT22;1861;50.240;8.596;2024-02-21T13:44:08;11.30;99.90
3690;DHT22;1861;50.240;8.596;2024-02-21T13:46:38;11.20;99.90
3690;DHT22;1861;50.240;8.596;2024-02-21T13:49:07;11.20;99.90
3690;DHT22;1861;50.240;8.596;2024-02-21T13:51:35;11.20;99.90
3690;DHT22;1861;50.240;8.596;2024-02-21T13:54:04;11.20;99.90
3690;DHT22;1861;50.240;8.596;2024-02-21T13:56:36;11.30;99.90
3690;DHT22;1861;50.240;8.596;2024-02-21T13:59:04;11.30;99.90
3690;DHT22;1861;50.240;8.596;2024-02-21T14:01:32;11.40;99.90
3690;DHT22;1861;50.240;8.596;2024-02-21T14:04:02;11.30;99.90
3690;DHT22;1861;50.240;8.596;2024-02-21T14:06:31;11.30;99.90
3690;DHT22;1861;50.240;8.596;2024-02-21T14:08:59;11.40;99.90
3690;DHT22;1861;50.240;8.596;2024-02-21T14:11:28;11.40;99.90
3690;DHT22;1861;50.240;8.596;2024-02-21T14:13:57;11.30;99.90
3690;DHT22;1861;50.240;8.596;2024-02-21T14:16:26;11.40;99.90
3690;DHT22;1861;50.240;8.596;2024-02-21T14:18:54;11.40;99.90
3690;DHT22;1861;50.240;8.596;2024-02-21T14:21:23;11.40;99.90
3690;DHT22;1861;50.240;8.596;2024-02-21T14:23:52;11.40;99.90
3690;DHT22;1861;50.240;8.596;2024-02-21T14:26:20;11.40;99.90
3690;DHT22;1861;50.240;8.596;2024-02-21T14:28:49;11.40;99.90
3690;DHT22;1861;50.240;8.596;2024-02-21T14:31:17;11.30;99.90
3690;DHT22;1861;50.240;8.596;2024-02-21T14:33:45;11.30;99.90
3690;DHT22;1861;50.240;8.596;2024-02-21T14:36:14;11.30;99.90
3690;DHT22;1861;50.240;8.596;2024-02-21T14:38:44;11.20;99.90
3690;DHT22;1861;50.240;8.596;2024-02-21T14:41:12;11.30;99.90
3690;DHT22;1861;50.240;8.596;2024-02-21T14:43:40;11.30;99.90
3690;DHT22;1861;50.240;8.596;2024-02-21T14:46:12;11.30;99.90
3690;DHT22;1861;50.240;8.596;2024-02-21T14:48:41;11.30;99.90
3690;DHT22;1861;50.240;8.596;2024-02-21T14:51:09;11.20;99.90
3690;DHT22;1861;50.240;8.596;2024-02-21T14:53:37;11.20;99.90
3690;DHT22;1861;50.240;8.596;2024-02-21T14:56:12;11.20;99.90
3690;DHT22;1861;50.240;8.596;2024-02-21T14:58:42;11.10;99.90
3690;DHT22;1861;50.240;8.596;2024-02-21T15:01:10;11.20;99.90
3690;DHT22;1861;50.240;8.596;2024-02-21T15:03:40;11.20;99.90
3690;DHT22;1861;50.240;8.596;2024-02-21T15:06:08;11.20;99.90
3690;DHT22;1861;50.240;8.596;2024-02-21T15:08:37;11.20;99.90
3690;DHT22;1861;50.240;8.596;2024-02-21T15:11:06;11.20;99.90
3690;DHT22;1861;50.240;8.596;2024-02-21T15:13:36;11.20;99.90
3690;DHT22;1861;50.240;8.596;2024-02-21T15:16:04;11.20;99.90
3690;DHT22;1861;50.240;8.596;2024-02-21T15:18:33;11.10;99.90
3690;DHT22;1861;50.240;8.596;2024-02-21T15:21:04;11.20;99.90
3690;DHT22;1861;50.240;8.596;2024-02-21T15:23:35;11.20;99.90
3690;DHT22;1861;50.240;8.596;2024-02-21T15:26:03;11.20;99.90
3690;DHT22;1861;50.240;8.596;2024-02-21T15:28:33;11.20;99.90
3690;DHT22;1861;50.240;8.596;2024-02-21T15:31:01;11.20;99.90
3690;DHT22;1861;50.240;8.596;2024-02-21T15:33:30;11.20;99.90
3690;DHT22;1861;50.240;8.596;2024-02-21T15:36:02;11.20;99.90
3690;DHT22;1861;50.240;8.596;2024-02-21T15:38:30;11.20;99.90
3690;DHT22;1861;50.240;8.596;2024-02-21T15:40:59;11.20;99.90
3690;DHT22;1861;50.240;8.596;2024-02-21T15:43:27;11.20;99.90
3690;DHT22;1861;50.240;8.596;2024-02-21T15:45:56;11.20;99.90
3690;DHT22;1861;50.240;8.596;2024-02-21T15:48:24;11.20;99.90
3690;DHT22;1861;50.240;8.596;2024-02-21T15:50:53;11.10;99.90
3690;DHT22;1861;50.240;8.596;2024-02-21T15:53:21;11.10;99.90
3690;DHT22;1861;50.240;8.596;2024-02-21T15:55:49;11.20;99.90
3690;DHT22;1861;50.240;8.596;2024-02-21T15:58:18;11.10;99.90
3690;DHT22;1861;50.240;8.596;2024-02-21T16:00:49;11.10;99.90
3690;DHT22;1861;50.240;8.596;2024-02-21T16:03:19;11.10;99.90
3690;DHT22;1861;50.240;8.596;2024-02-21T16:05:49;11.20;99.90
3690;DHT22;1861;50.240;8.596;2024-02-21T16:08:17;11.10;99.90
3690;DHT22;1861;50.240;8.596;2024-02-21T16:10:46;11.20;99.90
3690;DHT22;1861;50.240;8.596;2024-02-21T16:13:14;11.10;99.90
3690;DHT22;1861;50.240;8.596;2024-02-21T16:15:43;11.10;99.90